createdAt,value
2018-09-18T00:00:54.922Z,0
2018-09-18T00:02:11.045Z,0
2018-09-18T00:03:44.894Z,0
2018-09-18T00:05:00.966Z,0
2018-09-18T00:06:16.961Z,0
2018-09-18T00:07:32.917Z,0
2018-09-18T00:08:48.866Z,0
2018-09-18T00:10:04.909Z,0
2018-09-18T00:11:20.857Z,0
2018-09-18T00:12:36.891Z,0
2018-09-18T00:13:53.799Z,0
2018-09-18T00:15:09.870Z,0
2018-09-18T00:16:25.828Z,0
2018-09-18T00:18:00.741Z,0
2018-09-18T00:19:16.681Z,0
2018-09-18T00:20:32.627Z,0
2018-09-18T00:21:48.672Z,0
2018-09-18T00:23:04.649Z,0
2018-09-18T00:24:20.614Z,0
2018-09-18T00:25:54.692Z,0
2018-09-18T00:27:10.608Z,0
2018-09-18T00:28:26.591Z,0
2018-09-18T00:29:42.555Z,0
2018-09-18T00:31:17.509Z,0
2018-09-18T00:32:33.460Z,0
2018-09-18T00:33:49.387Z,0
2018-09-18T00:35:05.361Z,0
2018-09-18T00:36:21.337Z,0
2018-09-18T00:37:37.579Z,0
2018-09-18T00:38:53.590Z,0
2018-09-18T00:40:09.588Z,0
2018-09-18T00:41:25.533Z,0
2018-09-18T00:42:41.474Z,0
2018-09-18T00:44:15.429Z,0
2018-09-18T00:45:31.338Z,0
2018-09-18T00:46:47.346Z,0
2018-09-18T00:48:03.403Z,0
2018-09-18T00:49:19.361Z,0
2018-09-18T00:50:35.277Z,0
2018-09-18T00:51:51.227Z,0
2018-09-18T00:53:07.336Z,0
2018-09-18T00:54:23.396Z,0
2018-09-18T00:55:39.501Z,0
2018-09-18T00:56:55.452Z,0
2018-09-18T00:58:11.377Z,0
2018-09-18T00:59:27.510Z,0
2018-09-18T01:00:43.531Z,0
2018-09-18T01:01:59.457Z,0
2018-09-18T01:03:15.399Z,0
2018-09-18T01:04:31.583Z,0
2018-09-18T01:05:47.563Z,0
2018-09-18T01:07:03.510Z,0
2018-09-18T01:08:19.451Z,0
2018-09-18T01:09:35.515Z,0
2018-09-18T01:10:51.590Z,0
2018-09-18T01:12:07.535Z,0
2018-09-18T01:13:23.538Z,0
2018-09-18T01:14:57.416Z,0
2018-09-18T01:16:13.472Z,0
2018-09-18T01:17:29.411Z,0
2018-09-18T01:18:45.328Z,0
2018-09-18T01:20:01.346Z,0
2018-09-18T01:21:17.358Z,0
2018-09-18T01:22:33.412Z,0
2018-09-18T01:23:49.422Z,0
2018-09-18T01:25:05.479Z,0
2018-09-18T01:26:21.604Z,0
2018-09-18T01:27:37.603Z,0
2018-09-18T01:28:53.604Z,0
2018-09-18T01:31:43.472Z,0
2018-09-18T01:32:59.454Z,0
2018-09-18T01:34:15.501Z,0
2018-09-18T01:35:31.598Z,0
2018-09-18T01:36:47.616Z,0
2018-09-18T01:38:03.563Z,0
2018-09-18T01:39:19.518Z,0
2018-09-18T01:40:35.531Z,0
2018-09-18T01:41:52.501Z,0
2018-09-18T01:43:08.465Z,0
2018-09-18T01:44:24.382Z,0
2018-09-18T01:45:40.393Z,0
2018-09-18T01:46:56.444Z,0
2018-09-18T01:48:12.355Z,0
2018-09-18T01:49:28.433Z,0
2018-09-18T01:50:44.488Z,0
2018-09-18T01:52:00.480Z,0
2018-09-18T01:53:16.444Z,0
2018-09-18T01:54:32.394Z,0
2018-09-18T01:55:48.365Z,0
2018-09-18T01:57:04.444Z,0
2018-09-18T01:58:20.445Z,0
2018-09-18T01:59:36.395Z,0
2018-09-18T02:00:52.468Z,0
2018-09-18T02:02:08.566Z,0
2018-09-18T02:03:24.579Z,0
2018-09-18T02:04:40.537Z,0
2018-09-18T02:05:56.601Z,0
2018-09-18T02:07:12.559Z,0
2018-09-18T02:08:28.712Z,0
2018-09-18T02:09:44.807Z,0
2018-09-18T02:11:00.795Z,0
2018-09-18T02:12:16.870Z,0
2018-09-18T02:13:32.963Z,0
2018-09-18T02:14:48.937Z,0
2018-09-18T02:16:22.818Z,0
2018-09-18T02:17:38.873Z,0
2018-09-18T02:18:54.807Z,0
2018-09-18T02:20:10.863Z,0
2018-09-18T02:21:26.949Z,0
2018-09-18T02:22:42.868Z,0
2018-09-18T02:23:58.787Z,0
2018-09-18T02:25:14.744Z,0
2018-09-18T02:26:30.787Z,0
2018-09-18T02:28:04.754Z,0
2018-09-18T02:29:20.775Z,0
2018-09-18T02:30:36.819Z,0
2018-09-18T02:31:52.776Z,0
2018-09-18T02:33:08.789Z,0
2018-09-18T02:34:24.784Z,0
2018-09-18T02:35:40.870Z,0
2018-09-18T02:37:15.894Z,0
2018-09-18T02:38:31.922Z,0
2018-09-18T02:39:47.854Z,0
2018-09-18T02:41:03.961Z,0
2018-09-18T02:42:20.035Z,0
2018-09-18T02:43:36.061Z,0
2018-09-18T02:44:51.961Z,0
2018-09-18T02:47:41.773Z,0
2018-09-18T02:49:16.780Z,0
2018-09-18T02:50:32.782Z,0
2018-09-18T02:51:48.788Z,0
2018-09-18T02:53:04.856Z,0
2018-09-18T02:54:38.797Z,0
2018-09-18T02:55:54.781Z,0
2018-09-18T02:57:10.856Z,0
2018-09-18T02:58:26.774Z,0
2018-09-18T02:59:42.773Z,0
2018-09-18T03:00:58.787Z,0
2018-09-18T03:02:14.739Z,0
2018-09-18T03:03:30.742Z,0
2018-09-18T03:04:46.728Z,0
2018-09-18T03:06:02.652Z,0
2018-09-18T03:07:18.631Z,0
2018-09-18T03:08:34.770Z,0
2018-09-18T03:10:08.698Z,0
2018-09-18T03:11:24.753Z,0
2018-09-18T03:12:41.029Z,0
2018-09-18T03:14:14.816Z,0
2018-09-18T03:15:30.870Z,0
2018-09-18T03:16:46.952Z,0
2018-09-18T03:18:02.888Z,0
2018-09-18T03:19:18.811Z,0
2018-09-18T03:20:34.852Z,0
2018-09-18T03:21:50.767Z,0
2018-09-18T03:23:06.813Z,0
2018-09-18T03:24:22.807Z,0
2018-09-18T03:25:38.837Z,0
2018-09-18T03:26:54.877Z,0
2018-09-18T03:28:10.858Z,0
2018-09-18T03:29:26.782Z,0
2018-09-18T03:30:42.759Z,0
2018-09-18T03:31:58.758Z,0
2018-09-18T03:33:14.840Z,0
2018-09-18T03:34:30.836Z,0
2018-09-18T03:35:46.979Z,0
2018-09-18T03:37:02.873Z,0
2018-09-18T03:38:18.819Z,0
2018-09-18T03:39:34.799Z,0
2018-09-18T03:40:50.830Z,0
2018-09-18T03:42:06.882Z,0
2018-09-18T03:43:22.846Z,0
2018-09-18T03:44:38.824Z,0
2018-09-18T03:45:54.873Z,0
2018-09-18T03:47:10.975Z,0
2018-09-18T03:48:27.067Z,0
2018-09-18T03:49:42.982Z,0
2018-09-18T03:50:59.030Z,0
2018-09-18T03:52:15.147Z,0
2018-09-18T03:53:31.163Z,0
2018-09-18T03:55:06.131Z,0
2018-09-18T03:56:22.127Z,0
2018-09-18T03:57:38.046Z,0
2018-09-18T03:58:54.085Z,0
2018-09-18T04:00:28.028Z,0
2018-09-18T04:01:43.955Z,0
2018-09-18T04:03:00.159Z,0
2018-09-18T04:04:15.942Z,0
2018-09-18T04:05:32.049Z,0
2018-09-18T04:06:48.175Z,0
2018-09-18T04:08:04.237Z,0
2018-09-18T04:09:20.193Z,0
2018-09-18T04:10:55.092Z,0
2018-09-18T04:12:11.218Z,0
2018-09-18T04:13:27.148Z,0
2018-09-18T04:15:01.059Z,0
2018-09-18T04:16:17.044Z,0
2018-09-18T04:17:33.115Z,0
2018-09-18T04:18:49.065Z,0
2018-09-18T04:20:05.059Z,0
2018-09-18T04:21:21.146Z,0
2018-09-18T04:22:56.029Z,0
2018-09-18T04:24:11.983Z,0
2018-09-18T04:25:27.934Z,0
2018-09-18T04:26:44.013Z,0
2018-09-18T04:27:59.952Z,0
2018-09-18T04:29:15.921Z,0
2018-09-18T04:30:32.054Z,0
2018-09-18T04:32:05.924Z,0
2018-09-18T04:33:21.927Z,0
2018-09-18T04:34:37.856Z,1
2018-09-18T04:35:53.832Z,0
2018-09-18T04:37:09.896Z,0
2018-09-18T04:38:25.918Z,1
2018-09-18T04:41:33.725Z,1
2018-09-18T04:42:49.833Z,2
2018-09-18T04:44:05.933Z,2
2018-09-18T04:45:21.860Z,2
2018-09-18T04:46:55.840Z,3
2018-09-18T04:48:11.806Z,4
2018-09-18T04:49:27.832Z,4
2018-09-18T04:50:43.909Z,5
2018-09-18T04:51:59.952Z,6
2018-09-18T04:53:15.951Z,8
2018-09-18T04:54:31.888Z,9
2018-09-18T04:55:47.844Z,12
2018-09-18T04:57:03.949Z,14
2018-09-18T04:58:19.925Z,17
2018-09-18T04:59:35.905Z,19
2018-09-18T05:00:51.866Z,22
2018-09-18T05:02:07.993Z,25
2018-09-18T05:03:23.848Z,29
2018-09-18T05:04:39.857Z,33
2018-09-18T05:06:14.751Z,39
2018-09-18T05:07:48.663Z,44
2018-09-18T05:09:22.512Z,51
2018-09-18T05:10:57.474Z,58
2018-09-18T05:12:32.633Z,66
2018-09-18T05:15:22.507Z,80
2018-09-18T05:16:38.470Z,87
2018-09-18T05:18:12.342Z,96
2018-09-18T05:19:28.324Z,105
2018-09-18T05:20:44.443Z,111
2018-09-18T05:22:00.490Z,119
2018-09-18T05:23:16.496Z,127
2018-09-18T05:24:50.354Z,138
2018-09-18T05:26:06.264Z,145
2018-09-18T05:27:22.292Z,155
2018-09-18T05:28:56.297Z,166
2018-09-18T05:30:30.148Z,176
2018-09-18T05:31:46.138Z,184
2018-09-18T05:34:54.058Z,207
2018-09-18T05:36:10.062Z,217
2018-09-18T05:37:26.091Z,226
2018-09-18T05:40:33.936Z,247
2018-09-18T05:42:08.033Z,258
2018-09-18T05:43:41.756Z,266
2018-09-18T05:44:57.848Z,273
2018-09-18T05:46:13.762Z,277
2018-09-18T05:47:48.652Z,292
2018-09-18T05:49:22.762Z,303
2018-09-18T05:50:57.833Z,307
2018-09-18T05:52:13.949Z,317
2018-09-18T05:53:47.820Z,325
2018-09-18T05:55:03.844Z,333
2018-09-18T05:56:19.831Z,348
2018-09-18T05:58:11.567Z,358
2018-09-18T05:59:27.510Z,363
2018-09-18T06:01:01.534Z,365
2018-09-18T06:02:35.627Z,379
2018-09-18T06:03:51.696Z,383
2018-09-18T06:05:07.662Z,392
2018-09-18T06:06:23.730Z,409
2018-09-18T06:07:39.796Z,439
2018-09-18T06:08:55.875Z,464
2018-09-18T06:10:11.875Z,480
2018-09-18T06:11:27.954Z,495
2018-09-18T06:12:43.929Z,518
2018-09-18T06:14:00.022Z,538
2018-09-18T06:15:16.068Z,559
2018-09-18T06:16:49.941Z,584
2018-09-18T06:18:05.916Z,606
2018-09-18T06:19:21.901Z,632
2018-09-18T06:20:55.863Z,684
2018-09-18T06:22:29.841Z,760
2018-09-18T06:24:03.836Z,820
2018-09-18T06:25:37.756Z,852
2018-09-18T06:26:53.837Z,853
2018-09-18T06:28:09.892Z,858
2018-09-18T06:31:17.751Z,805
2018-09-18T06:32:33.870Z,754
2018-09-18T06:33:49.917Z,731
2018-09-18T06:35:05.828Z,699
2018-09-18T06:36:39.754Z,654
2018-09-18T06:37:55.774Z,605
2018-09-18T06:39:29.643Z,583
2018-09-18T06:41:03.604Z,573
2018-09-18T06:42:19.676Z,572
2018-09-18T06:43:53.505Z,574
2018-09-18T06:45:09.893Z,571
2018-09-18T06:46:43.752Z,566
2018-09-18T06:47:59.888Z,551
2018-09-18T06:49:33.745Z,573
2018-09-18T06:51:07.585Z,651
2018-09-18T06:52:23.631Z,634
2018-09-18T06:55:13.569Z,746
2018-09-18T06:56:29.561Z,740
2018-09-18T06:58:03.614Z,768
2018-09-18T06:59:19.597Z,823
2018-09-18T07:00:54.505Z,886
2018-09-18T07:02:10.458Z,797
2018-09-18T07:03:26.431Z,766
2018-09-18T07:04:42.426Z,784
2018-09-18T07:05:58.527Z,817
2018-09-18T07:07:33.369Z,851
2018-09-18T07:09:07.311Z,962
2018-09-18T07:10:23.364Z,958
2018-09-18T07:11:39.311Z,1027
2018-09-18T07:13:13.172Z,1092
2018-09-18T07:14:29.199Z,1157
2018-09-18T07:16:03.054Z,1292
2018-09-18T07:17:19.143Z,1282
2018-09-18T07:18:35.233Z,1435
2018-09-18T07:19:51.249Z,1446
2018-09-18T07:21:07.167Z,1480
2018-09-18T07:22:23.113Z,1436
2018-09-18T07:23:39.129Z,1426
2018-09-18T07:24:55.384Z,1297
2018-09-18T07:26:11.183Z,1250
2018-09-18T07:27:27.256Z,1218
2018-09-18T07:28:43.353Z,1208
2018-09-18T07:30:18.379Z,1226
2018-09-18T07:31:34.553Z,1253
2018-09-18T07:32:50.549Z,1284
2018-09-18T07:34:06.532Z,1282
2018-09-18T07:35:40.465Z,1299
2018-09-18T07:36:56.540Z,1280
2018-09-18T07:38:12.483Z,1245
2018-09-18T07:39:28.528Z,1201
2018-09-18T07:40:44.672Z,1208
2018-09-18T07:42:00.588Z,1267
2018-09-18T07:43:16.544Z,1307
2018-09-18T07:44:32.453Z,1334
2018-09-18T07:45:48.563Z,1369
2018-09-18T07:47:04.743Z,1373
2018-09-18T07:48:20.801Z,1365
2018-09-18T07:49:36.736Z,1424
2018-09-18T07:50:52.713Z,1382
2018-09-18T07:52:08.660Z,1348
2018-09-18T07:53:24.614Z,1328
2018-09-18T07:54:40.554Z,1368
2018-09-18T07:55:56.668Z,1424
2018-09-18T07:57:12.773Z,1676
2018-09-18T07:58:28.753Z,2128
2018-09-18T07:59:44.734Z,2347
2018-09-18T08:01:00.722Z,2369
2018-09-18T08:02:16.718Z,2223
2018-09-18T08:03:32.744Z,1941
2018-09-18T08:04:48.674Z,1961
2018-09-18T08:06:04.684Z,2159
2018-09-18T08:07:39.678Z,2259
2018-09-18T08:08:55.649Z,2335
2018-09-18T08:10:30.524Z,2510
2018-09-18T08:11:46.527Z,2613
2018-09-18T08:13:20.458Z,2644
2018-09-18T08:14:54.302Z,2524
2018-09-18T08:16:10.288Z,2740
2018-09-18T08:17:26.274Z,2781
2018-09-18T08:18:42.321Z,3014
2018-09-18T08:19:58.273Z,2972
2018-09-18T08:21:33.101Z,2992
2018-09-18T08:22:49.218Z,2747
2018-09-18T08:24:05.325Z,2649
2018-09-18T08:25:21.454Z,2409
2018-09-18T08:26:55.128Z,3100
2018-09-18T08:28:11.110Z,2662
2018-09-18T08:29:44.955Z,2444
2018-09-18T08:31:00.950Z,2921
2018-09-18T08:32:34.898Z,2876
2018-09-18T08:33:50.922Z,2385
2018-09-18T08:35:06.978Z,2744
2018-09-18T08:36:22.942Z,2717
2018-09-18T08:37:38.973Z,2766
2018-09-18T08:38:55.038Z,2841
2018-09-18T08:40:11.313Z,2881
2018-09-18T08:41:27.163Z,2806
2018-09-18T08:42:43.141Z,2767
2018-09-18T08:43:59.145Z,2653
2018-09-18T08:45:15.241Z,2774
2018-09-18T08:46:31.358Z,2853
2018-09-18T08:47:47.455Z,2933
2018-09-18T08:49:03.426Z,2924
2018-09-18T08:50:19.380Z,2893
2018-09-18T08:51:53.330Z,2832
2018-09-18T08:53:09.408Z,2901
2018-09-18T08:54:25.445Z,3053
2018-09-18T08:55:41.485Z,3098
2018-09-18T08:56:57.432Z,3133
2018-09-18T08:58:13.459Z,3118
2018-09-18T08:59:29.615Z,3108
2018-09-18T09:00:45.661Z,3162
2018-09-18T09:02:01.763Z,3110
2018-09-18T09:03:17.733Z,2720
2018-09-18T09:04:33.851Z,3096
2018-09-18T09:05:49.877Z,3092
2018-09-18T09:07:23.743Z,2547
2018-09-18T09:08:39.869Z,2467
2018-09-18T09:09:55.987Z,3082
2018-09-18T09:11:12.035Z,2949
2018-09-18T09:12:28.124Z,3221
2018-09-18T09:13:44.070Z,3170
2018-09-18T09:15:17.973Z,3149
2018-09-18T09:16:33.991Z,3149
2018-09-18T09:17:50.013Z,3138
2018-09-18T09:19:06.083Z,3145
2018-09-18T09:20:22.129Z,3246
2018-09-18T09:21:38.078Z,3276
2018-09-18T09:23:13.042Z,3271
2018-09-18T09:24:29.053Z,3246
2018-09-18T09:25:45.050Z,3089
2018-09-18T09:27:19.063Z,2772
2018-09-18T09:28:35.119Z,2810
2018-09-18T09:29:51.296Z,2984
2018-09-18T09:31:07.272Z,2981
2018-09-18T09:32:41.313Z,3207
2018-09-18T09:33:57.342Z,3227
2018-09-18T09:35:13.337Z,3205
2018-09-18T09:36:29.331Z,3204
2018-09-18T09:37:45.378Z,3190
2018-09-18T09:39:01.547Z,3190
2018-09-18T09:40:17.624Z,3187
2018-09-18T09:41:33.630Z,3214
2018-09-18T09:42:49.550Z,3223
2018-09-18T09:44:05.595Z,3242
2018-09-18T09:45:21.604Z,3313
2018-09-18T09:46:37.672Z,3392
2018-09-18T09:47:53.709Z,3490
2018-09-18T09:49:09.672Z,3484
2018-09-18T09:50:25.692Z,3489
2018-09-18T09:51:41.846Z,3382
2018-09-18T09:52:57.753Z,3275
2018-09-18T09:54:13.694Z,3293
2018-09-18T09:55:29.818Z,3326
2018-09-18T09:56:45.944Z,3363
2018-09-18T09:58:01.891Z,3406
2018-09-18T09:59:17.886Z,3418
2018-09-18T10:00:33.988Z,3413
2018-09-18T10:01:50.109Z,3427
2018-09-18T10:03:06.135Z,3403
2018-09-18T10:04:22.151Z,3377
2018-09-18T10:05:38.141Z,3405
2018-09-18T10:06:54.171Z,3378
2018-09-18T10:09:44.030Z,3371
2018-09-18T10:11:00.297Z,3379
2018-09-18T10:12:16.209Z,3414
2018-09-18T10:13:32.296Z,3435
2018-09-18T10:14:48.248Z,3456
2018-09-18T10:16:04.252Z,3464
2018-09-18T10:17:20.243Z,3541
2018-09-18T10:18:54.115Z,3723
2018-09-18T10:20:10.076Z,3910
2018-09-18T10:21:43.979Z,4367
2018-09-18T10:23:00.136Z,4441
2018-09-18T10:24:16.188Z,4310
2018-09-18T10:25:32.232Z,4293
2018-09-18T10:26:48.413Z,3796
2018-09-18T10:28:04.546Z,3132
2018-09-18T10:29:20.489Z,2360
2018-09-18T10:30:54.546Z,2293
2018-09-18T10:32:10.506Z,2195
2018-09-18T10:33:26.492Z,2138
2018-09-18T10:34:42.493Z,1929
2018-09-18T10:36:16.347Z,1890
2018-09-18T10:37:32.572Z,2558
2018-09-18T10:38:48.591Z,1994
2018-09-18T10:40:04.580Z,1995
2018-09-18T10:41:20.727Z,2090
2018-09-18T10:42:36.735Z,2219
2018-09-18T10:43:54.034Z,2165
2018-09-18T10:45:27.927Z,2100
2018-09-18T10:46:43.869Z,2079
2018-09-18T10:47:59.907Z,2009
2018-09-18T10:49:15.909Z,1994
2018-09-18T10:50:31.942Z,1870
2018-09-18T10:51:47.945Z,2041
2018-09-18T10:53:03.960Z,1703
2018-09-18T10:54:37.938Z,1584
2018-09-18T10:55:54.002Z,1558
2018-09-18T10:57:10.030Z,1524
2018-09-18T10:58:44.012Z,1487
2018-09-18T11:00:00.041Z,1477
2018-09-18T11:01:34.879Z,1488
2018-09-18T11:02:50.884Z,1464
2018-09-18T11:04:24.732Z,1433
2018-09-18T11:05:40.819Z,1456
2018-09-18T11:07:15.832Z,1513
2018-09-18T11:08:31.748Z,1526
2018-09-18T11:09:47.772Z,1504
2018-09-18T11:11:03.910Z,1439
2018-09-18T11:12:19.797Z,1383
2018-09-18T11:13:35.804Z,1351
2018-09-18T11:15:10.580Z,1298
2018-09-18T11:16:26.657Z,1272
2018-09-18T11:18:00.610Z,1201
2018-09-18T11:19:16.671Z,1158
2018-09-18T11:20:32.661Z,1117
2018-09-18T11:22:06.625Z,1056
2018-09-18T11:23:40.604Z,993
2018-09-18T11:24:56.633Z,966
2018-09-18T11:26:12.500Z,913
2018-09-18T11:27:28.561Z,864
2018-09-18T11:28:44.593Z,849
2018-09-18T11:30:00.735Z,828
2018-09-18T11:31:16.776Z,808
2018-09-18T11:32:32.774Z,813
2018-09-18T11:34:06.731Z,825
2018-09-18T11:35:22.887Z,837
2018-09-18T11:36:38.846Z,840
2018-09-18T11:37:54.919Z,835
2018-09-18T11:39:11.011Z,840
2018-09-18T11:40:27.142Z,826
2018-09-18T11:41:43.158Z,820
2018-09-18T11:42:59.216Z,808
2018-09-18T11:44:15.247Z,793
2018-09-18T11:45:31.317Z,774
2018-09-18T11:46:47.458Z,761
2018-09-18T11:48:03.353Z,741
2018-09-18T11:49:19.411Z,728
2018-09-18T11:50:36.443Z,717
2018-09-18T11:51:52.511Z,711
2018-09-18T11:53:08.637Z,718
2018-09-18T11:54:25.616Z,711
2018-09-18T11:55:59.501Z,693
2018-09-18T11:57:15.568Z,673
2018-09-18T11:58:31.631Z,655
2018-09-18T11:59:47.546Z,641
2018-09-18T12:01:03.691Z,621
2018-09-18T12:02:19.711Z,597
2018-09-18T12:03:53.607Z,567
2018-09-18T12:05:09.600Z,545
2018-09-18T12:06:25.701Z,532
2018-09-18T12:07:59.598Z,530
2018-09-18T12:09:15.661Z,534
2018-09-18T12:10:31.722Z,537
2018-09-18T12:11:48.290Z,537
2018-09-18T12:13:04.354Z,535
2018-09-18T12:14:20.343Z,534
2018-09-18T12:15:55.313Z,538
2018-09-18T12:17:11.402Z,544
2018-09-18T12:18:27.524Z,546
2018-09-18T12:19:43.519Z,545
2018-09-18T12:20:59.487Z,542
2018-09-18T12:22:15.592Z,516
2018-09-18T12:23:31.663Z,504
2018-09-18T12:24:47.708Z,509
2018-09-18T12:26:21.632Z,526
2018-09-18T12:27:55.751Z,556
2018-09-18T12:29:11.879Z,579
2018-09-18T12:30:27.902Z,580
2018-09-18T12:31:43.919Z,577
2018-09-18T12:33:17.949Z,575
2018-09-18T12:34:33.895Z,575
2018-09-18T12:35:49.980Z,578
2018-09-18T12:37:05.923Z,593
2018-09-18T12:38:22.024Z,618
2018-09-18T12:39:38.148Z,640
2018-09-18T12:40:54.131Z,652
2018-09-18T12:42:10.387Z,674
2018-09-18T12:43:26.336Z,678
2018-09-18T12:44:42.448Z,680
2018-09-18T12:45:58.463Z,690
2018-09-18T12:47:14.408Z,697
2018-09-18T12:50:04.560Z,711
2018-09-18T12:51:20.393Z,719
2018-09-18T12:52:36.438Z,715
2018-09-18T12:53:52.661Z,715
2018-09-18T12:55:08.596Z,708
2018-09-18T12:56:24.642Z,708
2018-09-18T12:57:58.524Z,699
2018-09-18T12:59:14.643Z,692
2018-09-18T13:00:30.635Z,694
2018-09-18T13:01:46.613Z,705
2018-09-18T13:03:20.654Z,722
2018-09-18T13:04:36.696Z,726
2018-09-18T13:06:10.618Z,758
2018-09-18T13:09:11.415Z,796
2018-09-18T13:10:27.484Z,912
2018-09-18T13:11:43.501Z,990
2018-09-18T13:12:59.474Z,1049
2018-09-18T13:14:15.619Z,1112
2018-09-18T13:15:31.460Z,1164
2018-09-18T13:17:05.532Z,1274
2018-09-18T13:37:30.613Z,1408
2018-09-18T13:38:46.765Z,4365
2018-09-18T13:40:02.795Z,3471
2018-09-18T13:41:19.039Z,4184
2018-09-18T13:42:34.892Z,4860
2018-09-18T13:43:50.909Z,4911
2018-09-18T13:45:06.933Z,4782
2018-09-18T13:46:23.059Z,3416
2018-09-18T13:47:56.941Z,4578
2018-09-18T13:49:31.956Z,4682
2018-09-18T13:50:48.071Z,5085
2018-09-18T13:52:04.207Z,5074
2018-09-18T13:53:20.234Z,4952
2018-09-18T13:54:54.057Z,4620
2018-09-18T13:56:10.431Z,4697
2018-09-18T13:57:26.529Z,4739
2018-09-18T13:58:43.279Z,4131
